sensor_id;sensor_type;location;lat;lon;timestamp;temperature;humidity
15690;DHT22;7945;48.816;11.506;2023-11-19T00:00:43;7.20;99.90
15690;DHT22;7945;48.816;11.506;2023-11-19T00:03:10;7.20;99.90
15690;DHT22;7945;48.816;11.506;2023-11-19T00:05:38;7.10;99.90
15690;DHT22;7945;48.816;11.506;2023-11-19T00:08:06;7.10;99.90
15690;DHT22;7945;48.816;11.506;2023-11-19T00:10:34;7.00;99.90
15690;DHT22;7945;48.816;11.506;2023-11-19T00:13:00;7.10;99.90
15690;DHT22;7945;48.816;11.506;2023-11-19T00:15:28;7.10;99.90
15690;DHT22;7945;48.816;11.506;2023-11-19T00:17:54;7.10;99.90
15690;DHT22;7945;48.816;11.506;2023-11-19T00:20:21;7.00;99.90
15690;DHT22;7945;48.816;11.506;2023-11-19T00:22:48;7.00;99.90
15690;DHT22;7945;48.816;11.506;2023-11-19T00:25:17;6.80;99.90
15690;DHT22;7945;48.816;11.506;2023-11-19T00:27:44;7.00;99.90
15690;DHT22;7945;48.816;11.506;2023-11-19T00:30:11;7.00;99.90
15690;DHT22;7945;48.816;11.506;2023-11-19T00:32:39;7.00;99.90
15690;DHT22;7945;48.816;11.506;2023-11-19T00:35:05;7.00;99.90
15690;DHT22;7945;48.816;11.506;2023-11-19T00:37:32;7.00;99.90
15690;DHT22;7945;48.816;11.506;2023-11-19T00:39:59;7.00;99.90
15690;DHT22;7945;48.816;11.506;2023-11-19T00:42:27;7.00;99.90
15690;DHT22;7945;48.816;11.506;2023-11-19T00:44:53;7.00;99.90
15690;DHT22;7945;48.816;11.506;2023-11-19T00:47:20;7.00;99.90
15690;DHT22;7945;48.816;11.506;2023-11-19T00:49:47;7.00;99.90
15690;DHT22;7945;48.816;11.506;2023-11-19T00:52:15;7.00;99.90
15690;DHT22;7945;48.816;11.506;2023-11-19T00:54:41;7.00;99.90
15690;DHT22;7945;48.816;11.506;2023-11-19T00:57:08;7.00;99.90
15690;DHT22;7945;48.816;11.506;2023-11-19T00:59:36;7.00;99.90
15690;DHT22;7945;48.816;11.506;2023-11-19T01:02:03;6.90;99.90
15690;DHT22;7945;48.816;11.506;2023-11-19T01:04:33;6.90;99.90
15690;DHT22;7945;48.816;11.506;2023-11-19T01:06:59;7.00;99.90
15690;DHT22;7945;48.816;11.506;2023-11-19T01:09:29;7.00;99.90
15690;DHT22;7945;48.816;11.506;2023-11-19T01:11:57;7.00;99.90
15690;DHT22;7945;48.816;11.506;2023-11-19T01:14:24;7.00;99.90
15690;DHT22;7945;48.816;11.506;2023-11-19T01:16:52;7.00;99.90
15690;DHT22;7945;48.816;11.506;2023-11-19T01:19:19;7.10;99.90
15690;DHT22;7945;48.816;11.506;2023-11-19T01:21:46;7.10;99.90
15690;DHT22;7945;48.816;11.506;2023-11-19T01:24:13;7.10;99.90
15690;DHT22;7945;48.816;11.506;2023-11-19T01:26:40;7.10;99.90
15690;DHT22;7945;48.816;11.506;2023-11-19T01:29:10;7.10;99.90
15690;DHT22;7945;48.816;11.506;2023-11-19T01:31:39;7.10;99.90
15690;DHT22;7945;48.816;11.506;2023-11-19T01:34:07;7.10;99.90
15690;DHT22;7945;48.816;11.506;2023-11-19T01:36:33;7.10;99.90
15690;DHT22;7945;48.816;11.506;2023-11-19T01:39:00;7.10;99.90
15690;DHT22;7945;48.816;11.506;2023-11-19T01:41:26;7.10;99.90
15690;DHT22;7945;48.816;11.506;2023-11-19T01:43:53;7.10;99.90
15690;DHT22;7945;48.816;11.506;2023-11-19T01:46:20;7.20;99.90
15690;DHT22;7945;48.816;11.506;2023-11-19T01:48:46;7.20;99.90
15690;DHT22;7945;48.816;11.506;2023-11-19T01:51:15;7.20;99.90
15690;DHT22;7945;48.816;11.506;2023-11-19T01:53:43;7.20;99.90
15690;DHT22;7945;48.816;11.506;2023-11-19T01:56:09;7.10;99.90
15690;DHT22;7945;48.816;11.506;2023-11-19T01:58:38;7.10;99.90
15690;DHT22;7945;48.816;11.506;2023-11-19T02:01:05;7.20;99.90
15690;DHT22;7945;48.816;11.506;2023-11-19T02:03:32;7.20;99.90
15690;DHT22;7945;48.816;11.506;2023-11-19T02:05:59;7.20;99.90
15690;DHT22;7945;48.816;11.506;2023-11-19T02:08:28;7.20;99.90
15690;DHT22;7945;48.816;11.506;2023-11-19T02:10:55;7.20;99.90
15690;DHT22;7945;48.816;11.506;2023-11-19T02:13:23;7.10;99.90
15690;DHT22;7945;48.816;11.506;2023-11-19T02:15:50;7.10;99.90
15690;DHT22;7945;48.816;11.506;2023-11-19T02:18:17;7.20;99.90
15690;DHT22;7945;48.816;11.506;2023-11-19T02:20:44;7.20;99.90
15690;DHT22;7945;48.816;11.506;2023-11-19T02:23:12;7.10;99.90
15690;DHT22;7945;48.816;11.506;2023-11-19T02:25:41;7.10;99.90
15690;DHT22;7945;48.816;11.506;2023-11-19T02:28:09;7.20;99.90
15690;DHT22;7945;48.816;11.506;2023-11-19T02:30:37;7.20;99.90
15690;DHT22;7945;48.816;11.506;2023-11-19T02:33:03;7.20;99.90
15690;DHT22;7945;48.816;11.506;2023-11-19T02:35:32;7.20;99.90
15690;DHT22;7945;48.816;11.506;2023-11-19T02:37:59;7.20;99.90
15690;DHT22;7945;48.816;11.506;2023-11-19T02:40:26;7.20;99.90
15690;DHT22;7945;48.816;11.506;2023-11-19T02:42:52;7.30;99.90
15690;DHT22;7945;48.816;11.506;2023-11-19T02:45:21;7.30;99.90
15690;DHT22;7945;48.816;11.506;2023-11-19T02:47:47;7.30;99.90
15690;DHT22;7945;48.816;11.506;2023-11-19T02:50:14;7.30;99.90
15690;DHT22;7945;48.816;11.506;2023-11-19T02:52:40;7.40;99.90
15690;DHT22;7945;48.816;11.506;2023-11-19T02:55:07;7.40;99.90
15690;DHT22;7945;48.816;11.506;2023-11-19T02:57:37;7.40;99.90
15690;DHT22;7945;48.816;11.506;2023-11-19T03:00:06;7.30;99.90
15690;DHT22;7945;48.816;11.506;2023-11-19T03:02:40;7.40;99.90
15690;DHT22;7945;48.816;11.506;2023-11-19T03:05:11;7.40;99.90
15690;DHT22;7945;48.816;11.506;2023-11-19T03:07:40;7.40;99.90
15690;DHT22;7945;48.816;11.506;2023-11-19T03:10:08;7.40;99.90
15690;DHT22;7945;48.816;11.506;2023-11-19T03:12:38;7.40;99.90
15690;DHT22;7945;48.816;11.506;2023-11-19T03:15:05;9.60;99.90
15690;DHT22;7945;48.816;11.506;2023-11-19T03:17:32;7.40;99.90
15690;DHT22;7945;48.816;11.506;2023-11-19T03:20:00;7.40;99.90
15690;DHT22;7945;48.816;11.506;2023-11-19T03:22:27;7.40;99.90
15690;DHT22;7945;48.816;11.506;2023-11-19T03:24:53;7.40;99.90
15690;DHT22;7945;48.816;11.506;2023-11-19T03:27:20;7.40;99.90
15690;DHT22;7945;48.816;11.506;2023-11-19T03:29:47;7.50;99.90
15690;DHT22;7945;48.816;11.506;2023-11-19T03:32:13;7.50;99.90
15690;DHT22;7945;48.816;11.506;2023-11-19T03:34:40;7.50;99.90
15690;DHT22;7945;48.816;11.506;2023-11-19T03:37:08;7.50;99.90
15690;DHT22;7945;48.816;11.506;2023-11-19T03:39:35;7.50;99.90
15690;DHT22;7945;48.816;11.506;2023-11-19T03:42:01;7.50;99.90
15690;DHT22;7945;48.816;11.506;2023-11-19T03:44:29;8.20;99.90
15690;DHT22;7945;48.816;11.506;2023-11-19T03:46:56;7.60;99.90
15690;DHT22;7945;48.816;11.506;2023-11-19T03:49:22;7.60;99.90
15690;DHT22;7945;48.816;11.506;2023-11-19T03:51:50;7.60;99.90
15690;DHT22;7945;48.816;11.506;2023-11-19T03:54:18;7.60;99.90
15690;DHT22;7945;48.816;11.506;2023-11-19T03:56:45;7.60;99.90
15690;DHT22;7945;48.816;11.506;2023-11-19T03:59:12;7.60;99.90
15690;DHT22;7945;48.816;11.506;2023-11-19T04:01:39;7.60;99.90
15690;DHT22;7945;48.816;11.506;2023-11-19T04:04:05;7.60;99.90
15690;DHT22;7945;48.816;11.506;2023-11-19T04:06:32;7.70;99.90
15690;DHT22;7945;48.816;11.506;2023-11-19T04:08:59;7.70;99.90
15690;DHT22;7945;48.816;11.506;2023-11-19T04:11:27;7.70;99.90
15690;DHT22;7945;48.816;11.506;2023-11-19T04:13:54;7.70;99.90
15690;DHT22;7945;48.816;11.506;2023-11-19T04:16:25;8.90;99.90
15690;DHT22;7945;48.816;11.506;2023-11-19T04:18:53;7.70;99.90
15690;DHT22;7945;48.816;11.506;2023-11-19T04:21:19;7.80;99.90
15690;DHT22;7945;48.816;11.506;2023-11-19T04:23:48;7.80;99.90
15690;DHT22;7945;48.816;11.506;2023-11-19T04:26:14;7.80;99.90
15690;DHT22;7945;48.816;11.506;2023-11-19T04:28:43;7.80;99.90
15690;DHT22;7945;48.816;11.506;2023-11-19T04:31:09;7.80;99.90
15690;DHT22;7945;48.816;11.506;2023-11-19T04:33:36;7.80;99.90
15690;DHT22;7945;48.816;11.506;2023-11-19T04:36:03;7.80;99.90
15690;DHT22;7945;48.816;11.506;2023-11-19T04:38:30;7.80;99.90
15690;DHT22;7945;48.816;11.506;2023-11-19T04:40:56;7.80;99.90
15690;DHT22;7945;48.816;11.506;2023-11-19T04:43:23;7.80;99.90
15690;DHT22;7945;48.816;11.506;2023-11-19T04:45:51;7.80;99.90
15690;DHT22;7945;48.816;11.506;2023-11-19T04:48:18;7.80;99.90
15690;DHT22;7945;48.816;11.506;2023-11-19T04:50:44;7.80;99.90
15690;DHT22;7945;48.816;11.506;2023-11-19T04:53:11;7.90;99.90
15690;DHT22;7945;48.816;11.506;2023-11-19T04:55:38;7.90;99.90
15690;DHT22;7945;48.816;11.506;2023-11-19T04:58:04;7.90;99.90
15690;DHT22;7945;48.816;11.506;2023-11-19T05:00:31;7.90;99.90
15690;DHT22;7945;48.816;11.506;2023-11-19T05:02:59;7.90;99.90
15690;DHT22;7945;48.816;11.506;2023-11-19T05:05:25;7.90;99.90
15690;DHT22;7945;48.816;11.506;2023-11-19T05:07:52;7.90;99.90
15690;DHT22;7945;48.816;11.506;2023-11-19T05:10:19;7.90;99.90
15690;DHT22;7945;48.816;11.506;2023-11-19T05:12:45;7.90;99.90
15690;DHT22;7945;48.816;11.506;2023-11-19T05:15:12;7.90;99.90
15690;DHT22;7945;48.816;11.506;2023-11-19T05:17:39;7.90;99.90
15690;DHT22;7945;48.816;11.506;2023-11-19T05:20:08;7.90;99.90
15690;DHT22;7945;48.816;11.506;2023-11-19T05:22:38;7.90;99.90
15690;DHT22;7945;48.816;11.506;2023-11-19T05:25:05;7.90;99.90
15690;DHT22;7945;48.816;11.506;2023-11-19T05:27:32;7.90;99.90
15690;DHT22;7945;48.816;11.506;2023-11-19T05:29:59;7.90;99.90
15690;DHT22;7945;48.816;11.506;2023-11-19T05:32:25;7.90;99.90
15690;DHT22;7945;48.816;11.506;2023-11-19T05:34:52;7.90;99.90
15690;DHT22;7945;48.816;11.506;2023-11-19T05:37:20;7.90;99.90
15690;DHT22;7945;48.816;11.506;2023-11-19T05:39:46;7.90;99.90
15690;DHT22;7945;48.816;11.506;2023-11-19T05:42:13;7.90;99.90
15690;DHT22;7945;48.816;11.506;2023-11-19T05:44:39;7.90;99.90
15690;DHT22;7945;48.816;11.506;2023-11-19T05:47:06;8.00;99.90
15690;DHT22;7945;48.816;11.506;2023-11-19T05:49:33;7.90;99.90
15690;DHT22;7945;48.816;11.506;2023-11-19T05:51:59;8.00;99.90
15690;DHT22;7945;48.816;11.506;2023-11-19T05:54:29;8.00;99.90
15690;DHT22;7945;48.816;11.506;2023-11-19T05:56:58;8.80;99.90
15690;DHT22;7945;48.816;11.506;2023-11-19T05:59:25;8.10;99.90
15690;DHT22;7945;48.816;11.506;2023-11-19T06:01:52;8.10;99.90
15690;DHT22;7945;48.816;11.506;2023-11-19T06:04:19;8.10;99.90
15690;DHT22;7945;48.816;11.506;2023-11-19T06:06:46;8.20;99.90
15690;DHT22;7945;48.816;11.506;2023-11-19T06:09:12;8.20;99.90
15690;DHT22;7945;48.816;11.506;2023-11-19T06:11:41;8.30;99.90
15690;DHT22;7945;48.816;11.506;2023-11-19T06:15:52;8.20;99.90
15690;DHT22;7945;48.816;11.506;2023-11-19T06:18:19;8.30;99.90
15690;DHT22;7945;48.816;11.506;2023-11-19T06:20:46;8.30;99.90
15690;DHT22;7945;48.816;11.506;2023-11-19T06:23:12;8.30;99.90
15690;DHT22;7945;48.816;11.506;2023-11-19T06:25:39;8.40;99.90
15690;DHT22;7945;48.816;11.506;2023-11-19T06:28:06;8.40;99.90
15690;DHT22;7945;48.816;11.506;2023-11-19T06:30:32;8.40;99.90
15690;DHT22;7945;48.816;11.506;2023-11-19T06:33:00;8.40;99.90
15690;DHT22;7945;48.816;11.506;2023-11-19T06:35:28;8.50;99.90
15690;DHT22;7945;48.816;11.506;2023-11-19T06:38:01;8.50;99.90
15690;DHT22;7945;48.816;11.506;2023-11-19T06:40:28;8.50;99.90
15690;DHT22;7945;48.816;11.506;2023-11-19T06:42:55;8.60;99.90
15690;DHT22;7945;48.816;11.506;2023-11-19T06:45:22;8.60;99.90
15690;DHT22;7945;48.816;11.506;2023-11-19T06:47:49;8.60;99.90
15690;DHT22;7945;48.816;11.506;2023-11-19T06:50:17;8.60;99.90
15690;DHT22;7945;48.816;11.506;2023-11-19T06:52:44;8.70;99.90
15690;DHT22;7945;48.816;11.506;2023-11-19T06:55:11;8.70;99.90
15690;DHT22;7945;48.816;11.506;2023-11-19T06:57:38;8.70;99.90
15690;DHT22;7945;48.816;11.506;2023-11-19T07:00:05;8.70;99.90
15690;DHT22;7945;48.816;11.506;2023-11-19T07:02:32;8.70;99.90
15690;DHT22;7945;48.816;11.506;2023-11-19T07:04:58;8.80;99.90
15690;DHT22;7945;48.816;11.506;2023-11-19T07:07:26;8.80;99.90
15690;DHT22;7945;48.816;11.506;2023-11-19T07:09:53;8.80;99.90
15690;DHT22;7945;48.816;11.506;2023-11-19T07:12:19;8.80;99.90
15690;DHT22;7945;48.816;11.506;2023-11-19T07:14:46;8.90;99.90
15690;DHT22;7945;48.816;11.506;2023-11-19T07:17:13;8.90;99.90
15690;DHT22;7945;48.816;11.506;2023-11-19T07:19:40;8.90;99.90
15690;DHT22;7945;48.816;11.506;2023-11-19T07:22:07;8.90;99.90
15690;DHT22;7945;48.816;11.506;2023-11-19T07:24:35;9.00;99.90
15690;DHT22;7945;48.816;11.506;2023-11-19T07:27:02;9.00;99.90
15690;DHT22;7945;48.816;11.506;2023-11-19T07:29:29;9.00;99.90
15690;DHT22;7945;48.816;11.506;2023-11-19T07:31:56;9.00;99.90
15690;DHT22;7945;48.816;11.506;2023-11-19T07:34:23;11.80;99.90
15690;DHT22;7945;48.816;11.506;2023-11-19T07:36:50;9.00;99.90
15690;DHT22;7945;48.816;11.506;2023-11-19T07:39:17;9.00;99.90
15690;DHT22;7945;48.816;11.506;2023-11-19T07:41:45;9.10;99.90
15690;DHT22;7945;48.816;11.506;2023-11-19T07:44:11;9.20;99.90
15690;DHT22;7945;48.816;11.506;2023-11-19T07:46:38;9.30;99.90
15690;DHT22;7945;48.816;11.506;2023-11-19T07:49:07;9.10;99.90
15690;DHT22;7945;48.816;11.506;2023-11-19T07:51:35;9.20;99.90
15690;DHT22;7945;48.816;11.506;2023-11-19T07:54:01;9.20;99.90
15690;DHT22;7945;48.816;11.506;2023-11-19T07:56:29;9.20;99.90
15690;DHT22;7945;48.816;11.506;2023-11-19T07:58:57;9.20;99.90
15690;DHT22;7945;48.816;11.506;2023-11-19T08:01:24;9.20;99.90
15690;DHT22;7945;48.816;11.506;2023-11-19T08:03:50;9.20;99.90
15690;DHT22;7945;48.816;11.506;2023-11-19T08:06:17;9.30;99.90
15690;DHT22;7945;48.816;11.506;2023-11-19T08:08:43;9.30;99.90
15690;DHT22;7945;48.816;11.506;2023-11-19T08:11:10;9.20;99.90
15690;DHT22;7945;48.816;11.506;2023-11-19T08:13:37;9.40;99.90
15690;DHT22;7945;48.816;11.506;2023-11-19T08:16:05;9.40;99.90
15690;DHT22;7945;48.816;11.506;2023-11-19T08:18:32;9.40;99.90
15690;DHT22;7945;48.816;11.506;2023-11-19T08:20:58;9.40;99.90
15690;DHT22;7945;48.816;11.506;2023-11-19T08:23:26;9.40;99.90
15690;DHT22;7945;48.816;11.506;2023-11-19T08:25:53;9.40;99.90
15690;DHT22;7945;48.816;11.506;2023-11-19T08:28:20;9.50;99.90
15690;DHT22;7945;48.816;11.506;2023-11-19T08:30:47;9.50;99.90
15690;DHT22;7945;48.816;11.506;2023-11-19T08:33:15;9.50;99.90
15690;DHT22;7945;48.816;11.506;2023-11-19T08:35:42;9.60;99.90
15690;DHT22;7945;48.816;11.506;2023-11-19T08:38:08;9.60;99.90
15690;DHT22;7945;48.816;11.506;2023-11-19T08:40:35;10.60;99.90
15690;DHT22;7945;48.816;11.506;2023-11-19T08:43:02;9.70;99.90
15690;DHT22;7945;48.816;11.506;2023-11-19T08:45:29;9.80;99.90
15690;DHT22;7945;48.816;11.506;2023-11-19T08:47:56;9.80;99.90
15690;DHT22;7945;48.816;11.506;2023-11-19T08:50:24;9.80;99.90
15690;DHT22;7945;48.816;11.506;2023-11-19T08:52:51;9.90;99.90
15690;DHT22;7945;48.816;11.506;2023-11-19T08:55:18;9.90;99.90
15690;DHT22;7945;48.816;11.506;2023-11-19T08:57:44;9.90;99.90
15690;DHT22;7945;48.816;11.506;2023-11-19T09:00:11;9.90;99.90
15690;DHT22;7945;48.816;11.506;2023-11-19T09:02:40;10.00;99.90
15690;DHT22;7945;48.816;11.506;2023-11-19T09:05:08;10.00;99.90
15690;DHT22;7945;48.816;11.506;2023-11-19T09:07:36;10.00;99.90
15690;DHT22;7945;48.816;11.506;2023-11-19T09:10:03;10.10;99.90
15690;DHT22;7945;48.816;11.506;2023-11-19T09:12:30;10.10;99.90
15690;DHT22;7945;48.816;11.506;2023-11-19T09:14:57;10.20;99.90
15690;DHT22;7945;48.816;11.506;2023-11-19T09:17:24;10.30;99.90
15690;DHT22;7945;48.816;11.506;2023-11-19T09:19:50;10.30;99.90
15690;DHT22;7945;48.816;11.506;2023-11-19T09:22:17;10.40;99.90
15690;DHT22;7945;48.816;11.506;2023-11-19T09:24:45;10.40;99.90
15690;DHT22;7945;48.816;11.506;2023-11-19T09:27:13;10.40;99.90
15690;DHT22;7945;48.816;11.506;2023-11-19T09:29:39;10.50;99.90
15690;DHT22;7945;48.816;11.506;2023-11-19T09:32:06;10.60;99.90
15690;DHT22;7945;48.816;11.506;2023-11-19T09:34:33;10.60;99.90
15690;DHT22;7945;48.816;11.506;2023-11-19T09:36:59;10.60;99.90
15690;DHT22;7945;48.816;11.506;2023-11-19T09:39:27;10.70;99.90
15690;DHT22;7945;48.816;11.506;2023-11-19T09:41:55;10.70;99.90
15690;DHT22;7945;48.816;11.506;2023-11-19T09:44:23;10.70;99.90
15690;DHT22;7945;48.816;11.506;2023-11-19T09:46:50;10.70;99.90
15690;DHT22;7945;48.816;11.506;2023-11-19T09:49:17;10.60;99.90
15690;DHT22;7945;48.816;11.506;2023-11-19T09:51:44;10.70;99.90
15690;DHT22;7945;48.816;11.506;2023-11-19T09:54:11;10.60;99.90
15690;DHT22;7945;48.816;11.506;2023-11-19T09:56:39;10.70;99.90
15690;DHT22;7945;48.816;11.506;2023-11-19T09:59:08;10.70;99.90
15690;DHT22;7945;48.816;11.506;2023-11-19T10:01:36;10.60;99.90
15690;DHT22;7945;48.816;11.506;2023-11-19T10:04:03;10.70;99.90
15690;DHT22;7945;48.816;11.506;2023-11-19T10:06:31;10.60;99.90
15690;DHT22;7945;48.816;11.506;2023-11-19T10:08:58;10.60;99.90
15690;DHT22;7945;48.816;11.506;2023-11-19T10:11:25;10.70;99.90
15690;DHT22;7945;48.816;11.506;2023-11-19T10:13:52;10.70;99.90
15690;DHT22;7945;48.816;11.506;2023-11-19T10:16:27;10.60;99.90
15690;DHT22;7945;48.816;11.506;2023-11-19T10:18:55;10.70;99.90
15690;DHT22;7945;48.816;11.506;2023-11-19T10:21:21;10.70;99.90
15690;DHT22;7945;48.816;11.506;2023-11-19T10:23:49;10.70;99.90
15690;DHT22;7945;48.816;11.506;2023-11-19T10:26:16;10.70;99.90
15690;DHT22;7945;48.816;11.506;2023-11-19T10:28:43;10.70;99.90
15690;DHT22;7945;48.816;11.506;2023-11-19T10:31:11;10.70;99.90
15690;DHT22;7945;48.816;11.506;2023-11-19T10:33:39;10.80;99.90
15690;DHT22;7945;48.816;11.506;2023-11-19T10:36:06;10.80;99.90
15690;DHT22;7945;48.816;11.506;2023-11-19T10:38:33;10.80;99.90
15690;DHT22;7945;48.816;11.506;2023-11-19T10:41:00;10.90;99.90
15690;DHT22;7945;48.816;11.506;2023-11-19T10:43:26;10.90;99.90
15690;DHT22;7945;48.816;11.506;2023-11-19T10:45:53;10.90;99.90
15690;DHT22;7945;48.816;11.506;2023-11-19T10:48:20;10.90;99.90
15690;DHT22;7945;48.816;11.506;2023-11-19T10:50:53;10.90;99.90
15690;DHT22;7945;48.816;11.506;2023-11-19T10:53:19;11.00;99.90
15690;DHT22;7945;48.816;11.506;2023-11-19T10:55:47;11.00;99.90
15690;DHT22;7945;48.816;11.506;2023-11-19T10:58:15;11.00;99.90
15690;DHT22;7945;48.816;11.506;2023-11-19T11:00:43;11.10;99.90
15690;DHT22;7945;48.816;11.506;2023-11-19T11:03:10;11.10;99.90
15690;DHT22;7945;48.816;11.506;2023-11-19T11:05:38;12.20;99.90
15690;DHT22;7945;48.816;11.506;2023-11-19T11:08:07;11.30;99.90
15690;DHT22;7945;48.816;11.506;2023-11-19T11:10:35;11.50;99.90
15690;DHT22;7945;48.816;11.506;2023-11-19T11:13:04;11.70;99.90
15690;DHT22;7945;48.816;11.506;2023-11-19T11:15:31;11.80;99.90
15690;DHT22;7945;48.816;11.506;2023-11-19T11:17:59;11.90;99.90
15690;DHT22;7945;48.816;11.506;2023-11-19T11:20:27;11.90;99.90
15690;DHT22;7945;48.816;11.506;2023-11-19T11:22:57;11.90;99.90
15690;DHT22;7945;48.816;11.506;2023-11-19T11:25:32;11.90;99.90
15690;DHT22;7945;48.816;11.506;2023-11-19T11:28:08;11.90;99.90
15690;DHT22;7945;48.816;11.506;2023-11-19T11:30:44;11.90;99.90
15690;DHT22;7945;48.816;11.506;2023-11-19T11:33:19;11.90;99.90
15690;DHT22;7945;48.816;11.506;2023-11-19T11:35:50;11.90;99.90
15690;DHT22;7945;48.816;11.506;2023-11-19T11:41:00;11.90;99.90
15690;DHT22;7945;48.816;11.506;2023-11-19T11:43:44;11.90;99.90
15690;DHT22;7945;48.816;11.506;2023-11-19T11:48:52;11.90;99.90
15690;DHT22;7945;48.816;11.506;2023-11-19T11:51:19;11.90;99.90
15690;DHT22;7945;48.816;11.506;2023-11-19T11:54:05;13.10;99.90
15690;DHT22;7945;48.816;11.506;2023-11-19T11:56:35;12.80;99.90
15690;DHT22;7945;48.816;11.506;2023-11-19T11:59:03;12.10;99.90
15690;DHT22;7945;48.816;11.506;2023-11-19T12:01:29;12.20;99.90
15690;DHT22;7945;48.816;11.506;2023-11-19T12:03:56;12.20;99.90
15690;DHT22;7945;48.816;11.506;2023-11-19T12:06:23;12.30;99.90
15690;DHT22;7945;48.816;11.506;2023-11-19T12:08:50;12.40;99.90
15690;DHT22;7945;48.816;11.506;2023-11-19T12:11:16;12.40;99.90
15690;DHT22;7945;48.816;11.506;2023-11-19T12:13:54;12.40;99.90
15690;DHT22;7945;48.816;11.506;2023-11-19T12:16:23;12.40;99.90
15690;DHT22;7945;48.816;11.506;2023-11-19T12:18:50;12.50;99.90
15690;DHT22;7945;48.816;11.506;2023-11-19T12:21:29;12.60;99.90
15690;DHT22;7945;48.816;11.506;2023-11-19T12:23:57;12.50;99.90
15690;DHT22;7945;48.816;11.506;2023-11-19T12:26:35;12.50;99.90
15690;DHT22;7945;48.816;11.506;2023-11-19T12:29:04;12.60;99.90
15690;DHT22;7945;48.816;11.506;2023-11-19T12:31:31;12.60;99.90
15690;DHT22;7945;48.816;11.506;2023-11-19T12:34:05;12.70;99.90
15690;DHT22;7945;48.816;11.506;2023-11-19T12:36:31;12.70;99.90
15690;DHT22;7945;48.816;11.506;2023-11-19T12:38:58;12.70;99.90
15690;DHT22;7945;48.816;11.506;2023-11-19T12:41:25;12.70;99.90
15690;DHT22;7945;48.816;11.506;2023-11-19T12:43:52;12.70;99.90
15690;DHT22;7945;48.816;11.506;2023-11-19T12:46:21;12.70;99.90
15690;DHT22;7945;48.816;11.506;2023-11-19T12:48:48;12.70;99.90
15690;DHT22;7945;48.816;11.506;2023-11-19T12:51:15;12.70;99.90
15690;DHT22;7945;48.816;11.506;2023-11-19T12:53:48;12.70;99.90
15690;DHT22;7945;48.816;11.506;2023-11-19T12:56:15;12.70;99.90
15690;DHT22;7945;48.816;11.506;2023-11-19T12:58:42;12.70;99.90
15690;DHT22;7945;48.816;11.506;2023-11-19T13:01:09;12.80;99.90
15690;DHT22;7945;48.816;11.506;2023-11-19T13:03:37;12.80;99.90
15690;DHT22;7945;48.816;11.506;2023-11-19T13:06:05;12.90;99.90
15690;DHT22;7945;48.816;11.506;2023-11-19T13:08:37;12.90;99.90
15690;DHT22;7945;48.816;11.506;2023-11-19T13:11:04;12.90;99.90
15690;DHT22;7945;48.816;11.506;2023-11-19T13:13:32;12.90;99.90
15690;DHT22;7945;48.816;11.506;2023-11-19T13:16:03;13.00;99.90
15690;DHT22;7945;48.816;11.506;2023-11-19T13:18:31;13.00;99.90
15690;DHT22;7945;48.816;11.506;2023-11-19T13:20:59;13.00;99.90
15690;DHT22;7945;48.816;11.506;2023-11-19T13:23:26;13.00;99.90
15690;DHT22;7945;48.816;11.506;2023-11-19T13:25:53;13.00;99.90
15690;DHT22;7945;48.816;11.506;2023-11-19T13:28:19;13.10;99.90
15690;DHT22;7945;48.816;11.506;2023-11-19T13:30:46;13.00;99.90
15690;DHT22;7945;48.816;11.506;2023-11-19T13:33:12;13.00;99.90
15690;DHT22;7945;48.816;11.506;2023-11-19T13:35:40;13.00;99.90
15690;DHT22;7945;48.816;11.506;2023-11-19T13:38:08;13.00;99.90
15690;DHT22;7945;48.816;11.506;2023-11-19T13:40:35;13.00;99.90
15690;DHT22;7945;48.816;11.506;2023-11-19T13:43:02;13.00;99.90
15690;DHT22;7945;48.816;11.506;2023-11-19T13:45:28;13.20;99.90
15690;DHT22;7945;48.816;11.506;2023-11-19T13:47:55;13.00;99.90
15690;DHT22;7945;48.816;11.506;2023-11-19T13:50:21;13.00;99.90
15690;DHT22;7945;48.816;11.506;2023-11-19T13:52:48;12.90;99.90
15690;DHT22;7945;48.816;11.506;2023-11-19T13:55:16;12.90;99.90
15690;DHT22;7945;48.816;11.506;2023-11-19T13:57:43;12.90;99.90
15690;DHT22;7945;48.816;11.506;2023-11-19T14:00:11;12.90;99.90
15690;DHT22;7945;48.816;11.506;2023-11-19T14:02:38;12.80;99.90
15690;DHT22;7945;48.816;11.506;2023-11-19T14:05:06;12.80;99.90
15690;DHT22;7945;48.816;11.506;2023-11-19T14:07:33;12.80;99.90
15690;DHT22;7945;48.816;11.506;2023-11-19T14:09:59;12.80;99.90
15690;DHT22;7945;48.816;11.506;2023-11-19T14:12:27;12.80;99.90
15690;DHT22;7945;48.816;11.506;2023-11-19T14:14:54;12.80;99.90
15690;DHT22;7945;48.816;11.506;2023-11-19T14:17:20;12.80;99.90
15690;DHT22;7945;48.816;11.506;2023-11-19T14:19:47;12.80;99.90
15690;DHT22;7945;48.816;11.506;2023-11-19T14:22:14;12.80;99.90
15690;DHT22;7945;48.816;11.506;2023-11-19T14:24:40;12.80;99.90
15690;DHT22;7945;48.816;11.506;2023-11-19T14:27:08;12.80;99.90
15690;DHT22;7945;48.816;11.506;2023-11-19T14:29:36;12.90;99.90
15690;DHT22;7945;48.816;11.506;2023-11-19T14:32:03;12.90;99.90
15690;DHT22;7945;48.816;11.506;2023-11-19T14:34:30;12.90;99.90
15690;DHT22;7945;48.816;11.506;2023-11-19T14:36:57;13.00;99.90
15690;DHT22;7945;48.816;11.506;2023-11-19T14:39:24;13.00;99.90
15690;DHT22;7945;48.816;11.506;2023-11-19T14:41:50;13.00;99.90
15690;DHT22;7945;48.816;11.506;2023-11-19T14:44:18;13.10;99.90
15690;DHT22;7945;48.816;11.506;2023-11-19T14:46:47;13.00;99.90
15690;DHT22;7945;48.816;11.506;2023-11-19T14:49:14;13.00;99.90
15690;DHT22;7945;48.816;11.506;2023-11-19T14:51:41;13.00;99.90
15690;DHT22;7945;48.816;11.506;2023-11-19T14:54:07;13.00;99.90
15690;DHT22;7945;48.816;11.506;2023-11-19T14:56:34;13.00;99.90
15690;DHT22;7945;48.816;11.506;2023-11-19T14:59:00;13.00;99.90
15690;DHT22;7945;48.816;11.506;2023-11-19T15:01:27;12.90;99.90
15690;DHT22;7945;48.816;11.506;2023-11-19T15:03:57;12.90;99.90
15690;DHT22;7945;48.816;11.506;2023-11-19T15:06:24;12.90;99.90
15690;DHT22;7945;48.816;11.506;2023-11-19T15:08:52;12.90;99.90
15690;DHT22;7945;48.816;11.506;2023-11-19T15:11:20;12.80;99.90
15690;DHT22;7945;48.816;11.506;2023-11-19T15:13:46;12.80;99.90
15690;DHT22;7945;48.816;11.506;2023-11-19T15:16:13;12.80;99.90
15690;DHT22;7945;48.816;11.506;2023-11-19T15:18:39;12.80;99.90
15690;DHT22;7945;48.816;11.506;2023-11-19T15:21:07;12.80;99.90
15690;DHT22;7945;48.816;11.506;2023-11-19T15:23:34;12.70;99.90
15690;DHT22;7945;48.816;11.506;2023-11-19T15:26:02;12.70;99.90
15690;DHT22;7945;48.816;11.506;2023-11-19T15:28:29;12.70;99.90
15690;DHT22;7945;48.816;11.506;2023-11-19T15:30:56;12.60;99.90
15690;DHT22;7945;48.816;11.506;2023-11-19T15:33:23;12.60;99.90
15690;DHT22;7945;48.816;11.506;2023-11-19T15:35:50;12.60;99.90
15690;DHT22;7945;48.816;11.506;2023-11-19T15:38:18;12.60;99.90
15690;DHT22;7945;48.816;11.506;2023-11-19T15:40:45;12.50;99.90
15690;DHT22;7945;48.816;11.506;2023-11-19T15:43:11;12.50;99.90
15690;DHT22;7945;48.816;11.506;2023-11-19T15:45:38;12.50;99.90
15690;DHT22;7945;48.816;11.506;2023-11-19T15:48:04;13.20;99.90